BAW1021 SPQU-SLLP
Flight info
| Callsign | BAW1021 |
|---|---|
| Flight time | 0h 48m |
| Altitude | 31000 |
| Route | OGMAS UM793 KOMPA |
| Aircraft | L101/H-SDFGHIRWXY/S |
Departure
| Time | 2026-04-28 18:16 |
|---|---|
| Airport | Rodríguez Ballón International Airport (SPQU) |
Arrival
| Time | 2026-04-28 19:04 |
|---|---|
| Airport | El Alto International Airport (SLLP) |
| Time | Latitude | Longitude | Altitude | Speed | Heading |
|---|---|---|---|---|---|
| 2026-04-28 17:50 | -16.34386 | -71.56780 | 8349 ft | 0 kts | 219° |
| 2026-04-28 18:06 | -16.34369 | -71.56768 | 8352 ft | 3 kts | 188° |
| 2026-04-28 18:06 | -16.34350 | -71.56773 | 8353 ft | 3 kts | 112° |
| 2026-04-28 18:07 | -16.34347 | -71.56782 | 8349 ft | 9 kts | 93° |
| 2026-04-28 18:09 | -16.34348 | -71.56773 | 8349 ft | 2 kts | 93° |
| 2026-04-28 18:09 | -16.34349 | -71.56749 | 8349 ft | 4 kts | 93° |
| 2026-04-28 18:10 | -16.34351 | -71.56705 | 8349 ft | 8 kts | 93° |
| 2026-04-28 18:10 | -16.34355 | -71.56635 | 8353 ft | 11 kts | 93° |
| 2026-04-28 18:10 | -16.34359 | -71.56543 | 8350 ft | 14 kts | 93° |
| 2026-04-28 18:10 | -16.34365 | -71.56435 | 8353 ft | 15 kts | 93° |
| 2026-04-28 18:11 | -16.34370 | -71.56344 | 8361 ft | 11 kts | 93° |
| 2026-04-28 18:11 | -16.34373 | -71.56283 | 8367 ft | 6 kts | 93° |
| 2026-04-28 18:11 | -16.34375 | -71.56252 | 8370 ft | 3 kts | 93° |
| 2026-04-28 18:11 | -16.34376 | -71.56232 | 8372 ft | 4 kts | 93° |
| 2026-04-28 18:12 | -16.34378 | -71.56188 | 8372 ft | 9 kts | 93° |
| 2026-04-28 18:12 | -16.34381 | -71.56099 | 8383 ft | 13 kts | 82° |
| 2026-04-28 18:12 | -16.34344 | -71.56016 | 8390 ft | 12 kts | 58° |
| 2026-04-28 18:12 | -16.34298 | -71.55947 | 8396 ft | 11 kts | 55° |
| 2026-04-28 18:13 | -16.34263 | -71.55891 | 8403 ft | 8 kts | 57° |
| 2026-04-28 18:13 | -16.34243 | -71.55857 | 8407 ft | 3 kts | 60° |
| 2026-04-28 18:13 | -16.34239 | -71.55850 | 8408 ft | 1 kts | 61° |
| 2026-04-28 18:13 | -16.34224 | -71.55822 | 8413 ft | 7 kts | 61° |
| 2026-04-28 18:14 | -16.34204 | -71.55787 | 8416 ft | 0 kts | 58° |
| 2026-04-28 18:14 | -16.34193 | -71.55768 | 8417 ft | 8 kts | 58° |
| 2026-04-28 18:14 | -16.34144 | -71.55729 | 8417 ft | 9 kts | 352° |
| 2026-04-28 18:15 | -16.34129 | -71.55757 | 8417 ft | 0 kts | 272° |
| 2026-04-28 18:15 | -16.34126 | -71.55824 | 8418 ft | 39 kts | 272° |
| 2026-04-28 18:15 | -16.34097 | -71.56386 | 8409 ft | 115 kts | 274° |
| 2026-04-28 18:15 | -16.34062 | -71.57444 | 8402 ft | 172 kts | 274° |
| 2026-04-28 18:16 | -16.34003 | -71.58753 | 8891 ft | 193 kts | 271° |
| 2026-04-28 18:16 | -16.33950 | -71.60168 | 9669 ft | 201 kts | 270° |
| 2026-04-28 18:16 | -16.33955 | -71.61692 | 10134 ft | 225 kts | 268° |
| 2026-04-28 18:16 | -16.34012 | -71.63415 | 10334 ft | 250 kts | 266° |
| 2026-04-28 18:17 | -16.34223 | -71.65284 | 10434 ft | 269 kts | 255° |
| 2026-04-28 18:17 | -16.34962 | -71.67122 | 10526 ft | 282 kts | 236° |
| 2026-04-28 18:17 | -16.36331 | -71.68595 | 10753 ft | 283 kts | 213° |
| 2026-04-28 18:17 | -16.38113 | -71.69371 | 10771 ft | 287 kts | 186° |
| 2026-04-28 18:18 | -16.40045 | -71.69059 | 11053 ft | 291 kts | 152° |
| 2026-04-28 18:18 | -16.41400 | -71.67511 | 11125 ft | 303 kts | 106° |
| 2026-04-28 18:18 | -16.41523 | -71.65299 | 11020 ft | 317 kts | 85° |
| 2026-04-28 18:18 | -16.41250 | -71.63774 | 10743 ft | 330 kts | 71° |
| 2026-04-28 18:19 | -16.39538 | -71.61120 | 10645 ft | 333 kts | 39° |
| 2026-04-28 18:19 | -16.37635 | -71.59761 | 10674 ft | 331 kts | 36° |
| 2026-04-28 18:19 | -16.35961 | -71.58089 | 10442 ft | 339 kts | 54° |
| 2026-04-28 18:19 | -16.34805 | -71.56026 | 10719 ft | 324 kts | 65° |
| 2026-04-28 18:20 | -16.34108 | -71.53893 | 11507 ft | 306 kts | 79° |
| 2026-04-28 18:20 | -16.33858 | -71.51750 | 11917 ft | 292 kts | 89° |
| 2026-04-28 18:20 | -16.34023 | -71.49712 | 12495 ft | 275 kts | 101° |
| 2026-04-28 18:20 | -16.34350 | -71.47728 | 13135 ft | 284 kts | 98° |
| 2026-04-28 18:21 | -16.34572 | -71.45642 | 13779 ft | 295 kts | 95° |
| 2026-04-28 18:21 | -16.34716 | -71.43470 | 14348 ft | 304 kts | 93° |
| 2026-04-28 18:21 | -16.34825 | -71.41248 | 14780 ft | 310 kts | 93° |
| 2026-04-28 18:21 | -16.34927 | -71.39010 | 15144 ft | 317 kts | 93° |
| 2026-04-28 18:22 | -16.35037 | -71.36695 | 15593 ft | 322 kts | 93° |
| 2026-04-28 18:22 | -16.35150 | -71.34349 | 16054 ft | 326 kts | 93° |
| 2026-04-28 18:22 | -16.35263 | -71.31993 | 16535 ft | 327 kts | 93° |
| 2026-04-28 18:22 | -16.35377 | -71.29614 | 16977 ft | 331 kts | 93° |
| 2026-04-28 18:23 | -16.35491 | -71.27224 | 17417 ft | 329 kts | 93° |
| 2026-04-28 18:23 | -16.35604 | -71.24841 | 17941 ft | 331 kts | 93° |
| 2026-04-28 18:23 | -16.35718 | -71.22435 | 18458 ft | 334 kts | 92° |
| 2026-04-28 18:23 | -16.35831 | -71.20046 | 18926 ft | 336 kts | 93° |
| 2026-04-28 18:24 | -16.35946 | -71.17624 | 19463 ft | 332 kts | 93° |
| 2026-04-28 18:24 | -16.36021 | -71.16037 | 20169 ft | 317 kts | 93° |
| 2026-04-28 18:24 | -16.36162 | -71.13042 | 21698 ft | 316 kts | 93° |
| 2026-04-28 18:24 | -16.36278 | -71.10649 | 21993 ft | 349 kts | 94° |
| 2026-04-28 18:25 | -16.36408 | -71.08014 | 22295 ft | 377 kts | 94° |
| 2026-04-28 18:25 | -16.36544 | -71.05223 | 22899 ft | 394 kts | 94° |
| 2026-04-28 18:25 | -16.36680 | -71.02356 | 22954 ft | 411 kts | 94° |
| 2026-04-28 18:26 | -16.36967 | -70.96259 | 23471 ft | 431 kts | 93° |
| 2026-04-28 18:26 | -16.37113 | -70.93124 | 23925 ft | 434 kts | 94° |
| 2026-04-28 18:26 | -16.37258 | -70.89993 | 24527 ft | 431 kts | 93° |
| 2026-04-28 18:26 | -16.37401 | -70.86895 | 25245 ft | 425 kts | 93° |
| 2026-04-28 18:27 | -16.37545 | -70.83825 | 25754 ft | 427 kts | 93° |
| 2026-04-28 18:27 | -16.37694 | -70.80704 | 26043 ft | 435 kts | 93° |
| 2026-04-28 18:27 | -16.37845 | -70.77529 | 26281 ft | 443 kts | 93° |
| 2026-04-28 18:27 | -16.37998 | -70.74295 | 26495 ft | 451 kts | 93° |
| 2026-04-28 18:28 | -16.38152 | -70.71036 | 26614 ft | 461 kts | 93° |
| 2026-04-28 18:28 | -16.38340 | -70.67019 | 26752 ft | 473 kts | 93° |
| 2026-04-28 18:28 | -16.38500 | -70.63573 | 26865 ft | 481 kts | 93° |
| 2026-04-28 18:28 | -16.38661 | -70.60084 | 27117 ft | 483 kts | 93° |
| 2026-04-28 18:29 | -16.38818 | -70.56640 | 27543 ft | 482 kts | 93° |
| 2026-04-28 18:29 | -16.38977 | -70.53173 | 28082 ft | 478 kts | 93° |
| 2026-04-28 18:29 | -16.39137 | -70.49702 | 28315 ft | 482 kts | 93° |
| 2026-04-28 18:30 | -16.39464 | -70.42620 | 28397 ft | 497 kts | 93° |
| 2026-04-28 18:30 | -16.39956 | -70.35394 | 28925 ft | 500 kts | 96° |
| 2026-04-28 18:30 | -16.40322 | -70.31807 | 29459 ft | 496 kts | 97° |
| 2026-04-28 18:31 | -16.40781 | -70.28308 | 29895 ft | 494 kts | 99° |
| 2026-04-28 18:31 | -16.41947 | -70.21264 | 30227 ft | 508 kts | 100° |
| 2026-04-28 18:31 | -16.42541 | -70.17608 | 30471 ft | 516 kts | 100° |
| 2026-04-28 18:32 | -16.43104 | -70.13890 | 30696 ft | 522 kts | 99° |
| 2026-04-28 18:32 | -16.43627 | -70.10130 | 30926 ft | 528 kts | 98° |
| 2026-04-28 18:32 | -16.44111 | -70.06312 | 31115 ft | 533 kts | 97° |
| 2026-04-28 18:32 | -16.44554 | -70.02459 | 31249 ft | 541 kts | 96° |
| 2026-04-28 18:33 | -16.44959 | -69.98554 | 31278 ft | 543 kts | 96° |
| 2026-04-28 18:33 | -16.45649 | -69.90779 | 31276 ft | 543 kts | 95° |
| 2026-04-28 18:34 | -16.46218 | -69.82928 | 31277 ft | 544 kts | 94° |
| 2026-04-28 18:34 | -16.46685 | -69.75073 | 31259 ft | 543 kts | 93° |
| 2026-04-28 18:35 | -16.47071 | -69.67208 | 31256 ft | 544 kts | 92° |
| 2026-04-28 18:35 | -16.47394 | -69.59395 | 31239 ft | 544 kts | 92° |
| 2026-04-28 18:36 | -16.47675 | -69.51523 | 31212 ft | 543 kts | 91° |
| 2026-04-28 18:36 | -16.47922 | -69.43658 | 31218 ft | 543 kts | 91° |
| 2026-04-28 18:37 | -16.48148 | -69.35790 | 31200 ft | 543 kts | 91° |
| 2026-04-28 18:37 | -16.48358 | -69.27973 | 31201 ft | 543 kts | 91° |
| 2026-04-28 18:38 | -16.48559 | -69.20114 | 31195 ft | 543 kts | 91° |
| 2026-04-28 18:38 | -16.48757 | -69.12248 | 31187 ft | 543 kts | 91° |
| 2026-04-28 18:39 | -16.48955 | -69.04384 | 31190 ft | 543 kts | 91° |
| 2026-04-28 18:39 | -16.49055 | -69.00447 | 30971 ft | 543 kts | 91° |
| 2026-04-28 18:39 | -16.49153 | -68.96556 | 30497 ft | 530 kts | 91° |
| 2026-04-28 18:39 | -16.49249 | -68.92779 | 29992 ft | 513 kts | 91° |
| 2026-04-28 18:40 | -16.49342 | -68.89155 | 29467 ft | 503 kts | 91° |
| 2026-04-28 18:40 | -16.49436 | -68.85525 | 28953 ft | 498 kts | 91° |
| 2026-04-28 18:40 | -16.49528 | -68.81936 | 28441 ft | 494 kts | 91° |
| 2026-04-28 18:40 | -16.49620 | -68.78407 | 27933 ft | 481 kts | 91° |
| 2026-04-28 18:41 | -16.49709 | -68.74968 | 27410 ft | 470 kts | 91° |
| 2026-04-28 18:41 | -16.49798 | -68.71595 | 26802 ft | 462 kts | 92° |
| 2026-04-28 18:41 | -16.49886 | -68.68270 | 26219 ft | 455 kts | 92° |
| 2026-04-28 18:41 | -16.49973 | -68.65005 | 25638 ft | 448 kts | 92° |
| 2026-04-28 18:42 | -16.50059 | -68.61824 | 25066 ft | 442 kts | 92° |
| 2026-04-28 18:42 | -16.50146 | -68.58641 | 24499 ft | 436 kts | 92° |
| 2026-04-28 18:42 | -16.50232 | -68.55506 | 23961 ft | 430 kts | 92° |
| 2026-04-28 18:42 | -16.50318 | -68.52409 | 23252 ft | 424 kts | 92° |
| 2026-04-28 18:43 | -16.50403 | -68.49383 | 22481 ft | 413 kts | 92° |
| 2026-04-28 18:43 | -16.50490 | -68.46428 | 21741 ft | 403 kts | 92° |
| 2026-04-28 18:43 | -16.50576 | -68.43539 | 21223 ft | 395 kts | 92° |
| 2026-04-28 18:43 | -16.50493 | -68.40715 | 20543 ft | 387 kts | 82° |
| 2026-04-28 18:44 | -16.49833 | -68.38063 | 19902 ft | 381 kts | 68° |
| 2026-04-28 18:44 | -16.46975 | -68.33599 | 18596 ft | 368 kts | 40° |
| 2026-04-28 18:44 | -16.44888 | -68.32102 | 17863 ft | 361 kts | 25° |
| 2026-04-28 18:45 | -16.42566 | -68.31300 | 17561 ft | 342 kts | 7° |
| 2026-04-28 18:45 | -16.40283 | -68.31259 | 17442 ft | 319 kts | 349° |
| 2026-04-28 18:45 | -16.38230 | -68.31943 | 17155 ft | 304 kts | 328° |
| 2026-04-28 18:45 | -16.36633 | -68.33271 | 16891 ft | 288 kts | 307° |
| 2026-04-28 18:46 | -16.35699 | -68.35042 | 16623 ft | 274 kts | 283° |
| 2026-04-28 18:46 | -16.35478 | -68.36939 | 16408 ft | 262 kts | 265° |
| 2026-04-28 18:46 | -16.35952 | -68.38736 | 15977 ft | 260 kts | 239° |
| 2026-04-28 18:46 | -16.37163 | -68.40099 | 15735 ft | 250 kts | 211° |
| 2026-04-28 18:47 | -16.38738 | -68.40585 | 16054 ft | 241 kts | 183° |
| 2026-04-28 18:47 | -16.40472 | -68.40199 | 16182 ft | 274 kts | 158° |
| 2026-04-28 18:47 | -16.42170 | -68.39148 | 16476 ft | 289 kts | 146° |
| 2026-04-28 18:47 | -16.43830 | -68.37961 | 16651 ft | 293 kts | 149° |
| 2026-04-28 18:48 | -16.45533 | -68.36817 | 16787 ft | 285 kts | 146° |
| 2026-04-28 18:48 | -16.47011 | -68.35544 | 16958 ft | 274 kts | 139° |
| 2026-04-28 18:48 | -16.48378 | -68.34146 | 16549 ft | 276 kts | 135° |
| 2026-04-28 18:48 | -16.49617 | -68.32658 | 16014 ft | 271 kts | 128° |
| 2026-04-28 18:49 | -16.50513 | -68.30983 | 15697 ft | 259 kts | 112° |
| 2026-04-28 18:49 | -16.50697 | -68.30391 | 15721 ft | 249 kts | 107° |
| 2026-04-28 18:49 | -16.51232 | -68.27493 | 14979 ft | 244 kts | 96° |
| 2026-04-28 18:49 | -16.51242 | -68.25757 | 14553 ft | 238 kts | 88° |
| 2026-04-28 18:50 | -16.51179 | -68.24083 | 13984 ft | 224 kts | 90° |
| 2026-04-28 18:50 | -16.51233 | -68.22567 | 13530 ft | 196 kts | 94° |
| 2026-04-28 18:50 | -16.51271 | -68.21231 | 13205 ft | 171 kts | 92° |
| 2026-04-28 18:50 | -16.51303 | -68.20149 | 13223 ft | 127 kts | 93° |
| 2026-04-28 18:51 | -16.47614 | -68.34944 | 16726 ft | 281 kts | 137° |
| 2026-04-28 18:51 | -16.48907 | -68.33490 | 16436 ft | 269 kts | 130° |
| 2026-04-28 18:51 | -16.49909 | -68.32022 | 16553 ft | 239 kts | 125° |
| 2026-04-28 18:52 | -16.50727 | -68.30477 | 15843 ft | 250 kts | 114° |
| 2026-04-28 18:52 | -16.51112 | -68.28715 | 15325 ft | 250 kts | 95° |
| 2026-04-28 18:52 | -16.51148 | -68.26943 | 14812 ft | 236 kts | 91° |
| 2026-04-28 18:52 | -16.51147 | -68.25298 | 14383 ft | 217 kts | 91° |
| 2026-04-28 18:53 | -16.51195 | -68.23788 | 13899 ft | 197 kts | 93° |
| 2026-04-28 18:53 | -16.51229 | -68.22448 | 13382 ft | 173 kts | 93° |
| 2026-04-28 18:53 | -16.51266 | -68.21319 | 13188 ft | 140 kts | 93° |
| 2026-04-28 18:53 | -16.47317 | -68.35242 | 16885 ft | 266 kts | 136° |
| 2026-04-28 18:54 | -16.48076 | -68.34332 | 16573 ft | 263 kts | 128° |
| 2026-04-28 18:54 | -16.48185 | -68.34175 | 16540 ft | 262 kts | 127° |
| 2026-04-28 18:54 | -16.49122 | -68.32588 | 16205 ft | 252 kts | 120° |
| 2026-04-28 18:54 | -16.49904 | -68.30999 | 15908 ft | 242 kts | 117° |
| 2026-04-28 18:55 | -16.50530 | -68.29379 | 15496 ft | 241 kts | 109° |
| 2026-04-28 18:55 | -16.50843 | -68.28270 | 15171 ft | 242 kts | 105° |
| 2026-04-28 18:55 | -16.51163 | -68.26010 | 14536 ft | 229 kts | 95° |
| 2026-04-28 18:55 | -16.51189 | -68.24397 | 14075 ft | 215 kts | 90° |
| 2026-04-28 18:56 | -16.51218 | -68.22934 | 13544 ft | 193 kts | 92° |
| 2026-04-28 18:56 | -16.51258 | -68.21622 | 13250 ft | 173 kts | 92° |
| 2026-04-28 18:56 | -16.51294 | -68.20465 | 13196 ft | 140 kts | 90° |
| 2026-04-28 18:56 | -16.51301 | -68.19619 | 13266 ft | 95 kts | 101° |
| 2026-04-28 18:57 | -16.46850 | -68.35697 | 17003 ft | 273 kts | 139° |
| 2026-04-28 18:57 | -16.48260 | -68.34474 | 17026 ft | 247 kts | 149° |
| 2026-04-28 18:57 | -16.49795 | -68.33838 | 17080 ft | 237 kts | 170° |
| 2026-04-28 18:57 | -16.51440 | -68.33799 | 17072 ft | 238 kts | 188° |
| 2026-04-28 18:58 | -16.53058 | -68.34156 | 17130 ft | 239 kts | 196° |
| 2026-04-28 18:58 | -16.54651 | -68.34654 | 17217 ft | 239 kts | 198° |
| 2026-04-28 18:58 | -16.56238 | -68.35196 | 17223 ft | 242 kts | 201° |
| 2026-04-28 18:58 | -16.57705 | -68.36022 | 17223 ft | 239 kts | 219° |
| 2026-04-28 18:59 | -16.58741 | -68.37356 | 17139 ft | 239 kts | 243° |
| 2026-04-28 18:59 | -16.59181 | -68.39026 | 16859 ft | 241 kts | 266° |
| 2026-04-28 18:59 | -16.58870 | -68.40722 | 16416 ft | 247 kts | 292° |
| 2026-04-28 18:59 | -16.57739 | -68.42038 | 15997 ft | 251 kts | 335° |
| 2026-04-28 19:00 | -16.56045 | -68.42035 | 15945 ft | 242 kts | 20° |
| 2026-04-28 19:00 | -16.54712 | -68.41076 | 15801 ft | 239 kts | 47° |
| 2026-04-28 19:00 | -16.53672 | -68.39633 | 15279 ft | 255 kts | 55° |
| 2026-04-28 19:00 | -16.52721 | -68.38084 | 15064 ft | 253 kts | 58° |
| 2026-04-28 19:01 | -16.51859 | -68.36521 | 15058 ft | 244 kts | 61° |
| 2026-04-28 19:01 | -16.51133 | -68.34968 | 15154 ft | 234 kts | 68° |
| 2026-04-28 19:01 | -16.50787 | -68.33341 | 15048 ft | 235 kts | 86° |
| 2026-04-28 19:01 | -16.50840 | -68.31649 | 15006 ft | 234 kts | 96° |
| 2026-04-28 19:02 | -16.51022 | -68.29947 | 14810 ft | 237 kts | 97° |
| 2026-04-28 19:02 | -16.51115 | -68.28230 | 14600 ft | 236 kts | 93° |
| 2026-04-28 19:02 | -16.51152 | -68.26556 | 14214 ft | 224 kts | 92° |
| 2026-04-28 19:02 | -16.51180 | -68.25009 | 13880 ft | 203 kts | 92° |
| 2026-04-28 19:03 | -16.51215 | -68.23627 | 13560 ft | 180 kts | 92° |
| 2026-04-28 19:03 | -16.51244 | -68.22365 | 13350 ft | 173 kts | 92° |
| 2026-04-28 19:03 | -16.51273 | -68.21101 | 13227 ft | 174 kts | 92° |
| 2026-04-28 19:03 | -16.51312 | -68.19901 | 13243 ft | 148 kts | 92° |
| 2026-04-28 19:04 | -16.51338 | -68.19077 | 13286 ft | 68 kts | 93° |
| 2026-04-28 19:04 | -16.51347 | -68.18754 | 13297 ft | 39 kts | 92° |
| 2026-04-28 19:04 | -16.51358 | -68.18491 | 13302 ft | 34 kts | 91° |
| 2026-04-28 19:04 | -16.51312 | -68.18277 | 13314 ft | 28 kts | 66° |
| 2026-04-28 19:05 | -16.51248 | -68.18163 | 13316 ft | 10 kts | 52° |
| 2026-04-28 19:05 | -16.51227 | -68.18135 | 13322 ft | 0 kts | 50° |
| 2026-04-28 19:05 | -16.51212 | -68.18119 | 13324 ft | 7 kts | 46° |
| 2026-04-28 19:05 | -16.51197 | -68.18102 | 13326 ft | 0 kts | 46° |
| 2026-04-28 19:06 | -16.51196 | -68.18102 | 13325 ft | 1 kts | 46° |
| 2026-04-28 19:06 | -16.51190 | -68.18094 | 13327 ft | 3 kts | 46° |
| 2026-04-28 19:06 | -16.51156 | -68.18058 | 13329 ft | 7 kts | 46° |
| 2026-04-28 19:06 | -16.51130 | -68.18029 | 13333 ft | 3 kts | 47° |
| 2026-04-28 19:07 | -16.51125 | -68.18023 | 13334 ft | 1 kts | 47° |
| 2026-04-28 19:07 | -16.51117 | -68.18014 | 13335 ft | 4 kts | 47° |
| 2026-04-28 19:07 | -16.51096 | -68.17991 | 13337 ft | 5 kts | 47° |
| 2026-04-28 19:07 | -16.51068 | -68.17959 | 13339 ft | 6 kts | 47° |
| 2026-04-28 19:08 | -16.51042 | -68.17929 | 13338 ft | 6 kts | 47° |
| 2026-04-28 19:08 | -16.51011 | -68.17894 | 13341 ft | 7 kts | 48° |
| 2026-04-28 19:08 | -16.50994 | -68.17849 | 13339 ft | 6 kts | 81° |
| 2026-04-28 19:08 | -16.50975 | -68.17821 | 13339 ft | 2 kts | 15° |
| 2026-04-28 19:09 | -16.50970 | -68.17822 | 13340 ft | 0 kts | 0° |
| 2026-04-28 19:09 | -16.50962 | -68.17821 | 13340 ft | 2 kts | 7° |
| 2026-04-28 19:09 | -16.50946 | -68.17818 | 13340 ft | 3 kts | 7° |
| 2026-04-28 19:09 | -16.50942 | -68.17818 | 13341 ft | 0 kts | 5° |